sensor_id;sensor_type;location;lat;lon;timestamp;pressure;altitude;pressure_sealevel;temperature;humidity
77662;BME280;69666;52.136;5.424;2023-06-14T00:00:41;101621.34;;;20.19;44.48
77662;BME280;69666;52.136;5.424;2023-06-14T00:03:10;101621.34;;;20.19;44.34
77662;BME280;69666;52.136;5.424;2023-06-14T00:05:38;101619.53;;;20.20;44.79
77662;BME280;69666;52.136;5.424;2023-06-14T00:08:09;101626.16;;;20.14;44.94
77662;BME280;69666;52.136;5.424;2023-06-14T00:10:37;101625.97;;;20.17;45.11
77662;BME280;69666;52.136;5.424;2023-06-14T00:13:04;101630.50;;;20.17;44.73
77662;BME280;69666;52.136;5.424;2023-06-14T00:15:31;101624.53;;;20.12;44.85
77662;BME280;69666;52.136;5.424;2023-06-14T00:17:58;101622.00;;;20.09;44.31
77662;BME280;69666;52.136;5.424;2023-06-14T00:20:28;101626.25;;;20.13;44.70
77662;BME280;69666;52.136;5.424;2023-06-14T00:22:56;101628.94;;;20.13;45.41
77662;BME280;69666;52.136;5.424;2023-06-14T00:25:23;101628.06;;;20.12;44.72
77662;BME280;69666;52.136;5.424;2023-06-14T00:27:56;101633.41;;;20.14;45.05
77662;BME280;69666;52.136;5.424;2023-06-14T00:30:23;101630.78;;;20.12;44.45
77662;BME280;69666;52.136;5.424;2023-06-14T00:32:50;101632.66;;;20.12;44.36
77662;BME280;69666;52.136;5.424;2023-06-14T00:35:18;101638.31;;;20.07;44.86
77662;BME280;69666;52.136;5.424;2023-06-14T00:37:45;101631.16;;;20.06;44.58
77662;BME280;69666;52.136;5.424;2023-06-14T00:40:11;101635.13;;;20.00;44.70
77662;BME280;69666;52.136;5.424;2023-06-14T00:42:38;101625.06;;;20.02;44.73
77662;BME280;69666;52.136;5.424;2023-06-14T00:45:05;101633.41;;;19.99;44.40
77662;BME280;69666;52.136;5.424;2023-06-14T00:47:33;101637.84;;;20.00;44.64
77662;BME280;69666;52.136;5.424;2023-06-14T00:50:01;101635.13;;;20.00;44.73
77662;BME280;69666;52.136;5.424;2023-06-14T00:52:28;101631.03;;;19.93;44.65
77662;BME280;69666;52.136;5.424;2023-06-14T00:54:56;101632.00;;;19.92;44.96
77662;BME280;69666;52.136;5.424;2023-06-14T00:57:23;101631.44;;;19.87;44.88
77662;BME280;69666;52.136;5.424;2023-06-14T00:59:50;101630.72;;;19.84;45.44
77662;BME280;69666;52.136;5.424;2023-06-14T01:02:17;101631.69;;;19.83;45.04
77662;BME280;69666;52.136;5.424;2023-06-14T01:04:48;101628.13;;;19.82;45.50
77662;BME280;69666;52.136;5.424;2023-06-14T01:10:29;101635.03;;;19.72;45.52
77662;BME280;69666;52.136;5.424;2023-06-14T01:13:27;101632.50;;;19.69;45.30
77662;BME280;69666;52.136;5.424;2023-06-14T01:15:56;101629.06;;;19.67;45.33
77662;BME280;69666;52.136;5.424;2023-06-14T01:18:23;101628.44;;;19.62;45.72
77662;BME280;69666;52.136;5.424;2023-06-14T01:20:52;101626.78;;;19.59;45.52
77662;BME280;69666;52.136;5.424;2023-06-14T01:23:22;101631.50;;;19.56;45.79
77662;BME280;69666;52.136;5.424;2023-06-14T01:25:49;101631.50;;;19.56;46.16
77662;BME280;69666;52.136;5.424;2023-06-14T01:28:21;101636.22;;;19.52;45.78
77662;BME280;69666;52.136;5.424;2023-06-14T01:30:51;101629.16;;;19.50;46.00
77662;BME280;69666;52.136;5.424;2023-06-14T01:33:21;101632.19;;;19.44;45.60
77662;BME280;69666;52.136;5.424;2023-06-14T01:35:50;101627.75;;;19.43;45.91
77662;BME280;69666;52.136;5.424;2023-06-14T01:38:21;101635.31;;;19.36;46.17
77662;BME280;69666;52.136;5.424;2023-06-14T01:40:49;101633.59;;;19.35;46.50
77662;BME280;69666;52.136;5.424;2023-06-14T01:43:18;101623.69;;;19.36;46.78
77662;BME280;69666;52.136;5.424;2023-06-14T01:45:47;101634.03;;;19.27;46.24
77662;BME280;69666;52.136;5.424;2023-06-14T01:48:15;101639.44;;;19.27;46.58
77662;BME280;69666;52.136;5.424;2023-06-14T01:50:42;101634.22;;;19.24;46.88
77662;BME280;69666;52.136;5.424;2023-06-14T01:53:09;101635.34;;;19.20;47.00
77662;BME280;69666;52.136;5.424;2023-06-14T01:55:37;101638.41;;;19.14;46.93
77662;BME280;69666;52.136;5.424;2023-06-14T01:58:04;101627.69;;;19.13;47.13
77662;BME280;69666;52.136;5.424;2023-06-14T02:00:31;101626.91;;;19.11;47.91
77662;BME280;69666;52.136;5.424;2023-06-14T02:02:58;101634.28;;;19.07;47.25
77662;BME280;69666;52.136;5.424;2023-06-14T02:05:24;101636.22;;;19.05;48.23
77662;BME280;69666;52.136;5.424;2023-06-14T02:07:52;101629.25;;;19.01;48.32
77662;BME280;69666;52.136;5.424;2023-06-14T02:10:22;101636.66;;;18.98;49.06
77662;BME280;69666;52.136;5.424;2023-06-14T02:12:49;101635.25;;;18.90;48.80
77662;BME280;69666;52.136;5.424;2023-06-14T02:15:16;101631.16;;;18.83;49.18
77662;BME280;69666;52.136;5.424;2023-06-14T02:17:44;101635.06;;;18.78;49.47
77662;BME280;69666;52.136;5.424;2023-06-14T02:20:11;101636.25;;;18.72;49.75
77662;BME280;69666;52.136;5.424;2023-06-14T02:22:39;101637.50;;;18.67;50.10
77662;BME280;69666;52.136;5.424;2023-06-14T02:25:06;101635.03;;;18.62;49.96
77662;BME280;69666;52.136;5.424;2023-06-14T02:27:34;101630.81;;;18.56;50.11
77662;BME280;69666;52.136;5.424;2023-06-14T02:30:01;101630.19;;;18.51;50.41
77662;BME280;69666;52.136;5.424;2023-06-14T02:32:28;101638.63;;;18.45;50.39
77662;BME280;69666;52.136;5.424;2023-06-14T02:34:55;101639.72;;;18.41;50.44
77662;BME280;69666;52.136;5.424;2023-06-14T02:37:22;101637.31;;;18.37;50.50
77662;BME280;69666;52.136;5.424;2023-06-14T02:39:49;101636.66;;;18.32;50.78
77662;BME280;69666;52.136;5.424;2023-06-14T02:42:15;101645.00;;;18.27;51.21
77662;BME280;69666;52.136;5.424;2023-06-14T02:44:42;101646.03;;;18.24;50.41
77662;BME280;69666;52.136;5.424;2023-06-14T02:47:09;101647.22;;;18.19;51.42
77662;BME280;69666;52.136;5.424;2023-06-14T02:49:36;101652.06;;;18.12;51.96
77662;BME280;69666;52.136;5.424;2023-06-14T02:52:02;101646.91;;;18.08;51.95
77662;BME280;69666;52.136;5.424;2023-06-14T02:54:29;101650.00;;;18.00;52.06
77662;BME280;69666;52.136;5.424;2023-06-14T02:56:56;101642.34;;;17.93;52.52
77662;BME280;69666;52.136;5.424;2023-06-14T02:59:22;101650.72;;;17.86;52.65
77662;BME280;69666;52.136;5.424;2023-06-14T03:01:51;101660.94;;;17.80;52.92
77662;BME280;69666;52.136;5.424;2023-06-14T03:04:18;101664.91;;;17.73;53.02
77662;BME280;69666;52.136;5.424;2023-06-14T03:06:44;101661.63;;;17.66;54.09
77662;BME280;69666;52.136;5.424;2023-06-14T03:09:16;101669.13;;;17.60;54.12
77662;BME280;69666;52.136;5.424;2023-06-14T03:11:43;101670.28;;;17.54;54.30
77662;BME280;69666;52.136;5.424;2023-06-14T03:14:09;101666.97;;;17.49;54.24
77662;BME280;69666;52.136;5.424;2023-06-14T03:16:38;101670.81;;;17.43;54.20
77662;BME280;69666;52.136;5.424;2023-06-14T03:19:04;101671.94;;;17.39;54.20
77662;BME280;69666;52.136;5.424;2023-06-14T03:21:31;101675.63;;;17.37;54.30
77662;BME280;69666;52.136;5.424;2023-06-14T03:23:58;101682.97;;;17.33;54.00
77662;BME280;69666;52.136;5.424;2023-06-14T03:26:25;101680.47;;;17.30;54.59
77662;BME280;69666;52.136;5.424;2023-06-14T03:28:52;101683.16;;;17.30;55.00
77662;BME280;69666;52.136;5.424;2023-06-14T03:31:18;101686.84;;;17.28;54.73
77662;BME280;69666;52.136;5.424;2023-06-14T03:33:45;101681.47;;;17.28;54.81
77662;BME280;69666;52.136;5.424;2023-06-14T03:36:12;101684.09;;;17.29;54.67
77662;BME280;69666;52.136;5.424;2023-06-14T03:38:39;101686.91;;;17.26;54.91
77662;BME280;69666;52.136;5.424;2023-06-14T03:41:05;101684.22;;;17.26;53.92
77662;BME280;69666;52.136;5.424;2023-06-14T03:43:32;101688.75;;;17.26;54.73
77662;BME280;69666;52.136;5.424;2023-06-14T03:45:59;101688.81;;;17.24;55.02
77662;BME280;69666;52.136;5.424;2023-06-14T03:48:26;101690.63;;;17.24;54.72
77662;BME280;69666;52.136;5.424;2023-06-14T03:50:53;101691.56;;;17.23;53.96
77662;BME280;69666;52.136;5.424;2023-06-14T03:53:24;101696.00;;;17.24;54.90
77662;BME280;69666;52.136;5.424;2023-06-14T03:55:50;101700.50;;;17.23;55.00
77662;BME280;69666;52.136;5.424;2023-06-14T03:58:23;101696.94;;;17.23;54.86
77662;BME280;69666;52.136;5.424;2023-06-14T04:00:49;101707.63;;;17.24;55.31
77662;BME280;69666;52.136;5.424;2023-06-14T04:03:16;101704.13;;;17.22;55.54
77662;BME280;69666;52.136;5.424;2023-06-14T04:05:43;101704.22;;;17.21;55.98
77662;BME280;69666;52.136;5.424;2023-06-14T04:08:11;101704.31;;;17.19;55.75
77662;BME280;69666;52.136;5.424;2023-06-14T04:10:41;101710.47;;;17.21;55.16
77662;BME280;69666;52.136;5.424;2023-06-14T04:13:07;101721.22;;;17.21;55.62
77662;BME280;69666;52.136;5.424;2023-06-14T04:15:34;101721.22;;;17.21;55.49
77662;BME280;69666;52.136;5.424;2023-06-14T04:18:02;101722.16;;;17.20;55.57
77662;BME280;69666;52.136;5.424;2023-06-14T04:20:28;101724.00;;;17.20;55.77
77662;BME280;69666;52.136;5.424;2023-06-14T04:22:56;101722.28;;;17.19;55.66
77662;BME280;69666;52.136;5.424;2023-06-14T04:25:23;101716.97;;;17.17;56.05
77662;BME280;69666;52.136;5.424;2023-06-14T04:27:52;101731.22;;;17.19;55.09
77662;BME280;69666;52.136;5.424;2023-06-14T04:30:19;101728.41;;;17.21;55.50
77662;BME280;69666;52.136;5.424;2023-06-14T04:32:47;101723.84;;;17.23;55.20
77662;BME280;69666;52.136;5.424;2023-06-14T04:35:16;101730.91;;;17.25;55.16
77662;BME280;69666;52.136;5.424;2023-06-14T04:37:44;101726.41;;;17.26;55.24
77662;BME280;69666;52.136;5.424;2023-06-14T04:40:11;101731.72;;;17.27;55.91
77662;BME280;69666;52.136;5.424;2023-06-14T04:42:38;101721.91;;;17.26;56.03
77662;BME280;69666;52.136;5.424;2023-06-14T04:45:07;101738.59;;;17.33;56.12
77662;BME280;69666;52.136;5.424;2023-06-14T04:47:35;101734.97;;;17.34;55.98
77662;BME280;69666;52.136;5.424;2023-06-14T04:50:02;101742.03;;;17.36;55.67
77662;BME280;69666;52.136;5.424;2023-06-14T04:52:30;101742.84;;;17.38;55.63
77662;BME280;69666;52.136;5.424;2023-06-14T04:54:57;101736.66;;;17.36;56.71
77662;BME280;69666;52.136;5.424;2023-06-14T04:57:24;101741.91;;;17.39;56.42
77662;BME280;69666;52.136;5.424;2023-06-14T04:59:54;101744.34;;;17.44;56.43
77662;BME280;69666;52.136;5.424;2023-06-14T05:02:22;101746.16;;;17.43;56.93
77662;BME280;69666;52.136;5.424;2023-06-14T05:04:51;101744.34;;;17.44;56.20
77662;BME280;69666;52.136;5.424;2023-06-14T05:07:18;101749.59;;;17.47;56.74
77662;BME280;69666;52.136;5.424;2023-06-14T05:09:45;101747.84;;;17.46;56.01
77662;BME280;69666;52.136;5.424;2023-06-14T05:12:12;101748.66;;;17.48;56.00
77662;BME280;69666;52.136;5.424;2023-06-14T05:14:39;101745.81;;;17.51;55.43
77662;BME280;69666;52.136;5.424;2023-06-14T05:17:06;101748.41;;;17.52;55.95
77662;BME280;69666;52.136;5.424;2023-06-14T05:19:32;101751.84;;;17.56;56.73
77662;BME280;69666;52.136;5.424;2023-06-14T05:21:59;101751.63;;;17.61;56.54
77662;BME280;69666;52.136;5.424;2023-06-14T05:24:26;101751.47;;;17.64;56.39
77662;BME280;69666;52.136;5.424;2023-06-14T05:26:53;101753.81;;;17.71;56.11
77662;BME280;69666;52.136;5.424;2023-06-14T05:29:19;101754.44;;;17.76;56.22
77662;BME280;69666;52.136;5.424;2023-06-14T05:31:47;101754.97;;;17.84;56.30
77662;BME280;69666;52.136;5.424;2023-06-14T05:34:14;101753.38;;;17.98;55.88
77662;BME280;69666;52.136;5.424;2023-06-14T05:36:41;101748.03;;;18.15;55.40
77662;BME280;69666;52.136;5.424;2023-06-14T05:39:07;101758.50;;;18.38;55.28
77662;BME280;69666;52.136;5.424;2023-06-14T05:41:34;101761.00;;;18.60;55.27
77662;BME280;69666;52.136;5.424;2023-06-14T05:44:01;101758.28;;;18.93;53.75
77662;BME280;69666;52.136;5.424;2023-06-14T05:46:28;101759.50;;;19.20;53.06
77662;BME280;69666;52.136;5.424;2023-06-14T05:48:55;101761.38;;;19.51;52.04
77662;BME280;69666;52.136;5.424;2023-06-14T05:51:23;101764.22;;;19.80;50.74
77662;BME280;69666;52.136;5.424;2023-06-14T05:53:51;101758.81;;;20.11;49.72
77662;BME280;69666;52.136;5.424;2023-06-14T05:56:19;101769.75;;;20.39;48.63
77662;BME280;69666;52.136;5.424;2023-06-14T05:58:46;101769.13;;;20.64;48.25
77662;BME280;69666;52.136;5.424;2023-06-14T06:01:14;101768.75;;;20.85;47.92
77662;BME280;69666;52.136;5.424;2023-06-14T06:03:41;101769.06;;;21.08;47.19
77662;BME280;69666;52.136;5.424;2023-06-14T06:06:08;101776.53;;;21.33;45.90
77662;BME280;69666;52.136;5.424;2023-06-14T06:08:34;101773.38;;;21.54;45.31
77662;BME280;69666;52.136;5.424;2023-06-14T06:11:03;101773.00;;;21.74;45.96
77662;BME280;69666;52.136;5.424;2023-06-14T06:13:30;101764.69;;;22.04;45.14
77662;BME280;69666;52.136;5.424;2023-06-14T06:15:57;101769.00;;;22.33;44.67
77662;BME280;69666;52.136;5.424;2023-06-14T06:18:23;101773.25;;;22.50;43.06
77662;BME280;69666;52.136;5.424;2023-06-14T06:20:50;101770.66;;;22.74;42.51
77662;BME280;69666;52.136;5.424;2023-06-14T06:23:17;101774.97;;;22.90;41.86
77662;BME280;69666;52.136;5.424;2023-06-14T06:25:44;101768.97;;;23.11;41.19
77662;BME280;69666;52.136;5.424;2023-06-14T06:28:11;101774.16;;;23.26;41.38
77662;BME280;69666;52.136;5.424;2023-06-14T06:30:38;101773.47;;;23.48;40.89
77662;BME280;69666;52.136;5.424;2023-06-14T06:33:04;101774.53;;;23.71;40.05
77662;BME280;69666;52.136;5.424;2023-06-14T06:35:32;101773.91;;;23.91;39.86
77662;BME280;69666;52.136;5.424;2023-06-14T06:37:59;101772.63;;;24.08;39.56
77662;BME280;69666;52.136;5.424;2023-06-14T06:40:27;101774.97;;;24.25;39.06
77662;BME280;69666;52.136;5.424;2023-06-14T06:42:53;101781.47;;;24.47;38.81
77662;BME280;69666;52.136;5.424;2023-06-14T06:45:20;101782.06;;;24.74;38.35
77662;BME280;69666;52.136;5.424;2023-06-14T06:47:50;101782.44;;;24.92;37.12
77662;BME280;69666;52.136;5.424;2023-06-14T06:50:18;101783.88;;;24.97;36.79
77662;BME280;69666;52.136;5.424;2023-06-14T06:52:46;101788.22;;;25.22;36.47
77662;BME280;69666;52.136;5.424;2023-06-14T06:55:13;101796.25;;;25.46;35.76
77662;BME280;69666;52.136;5.424;2023-06-14T06:57:40;101790.06;;;25.66;35.58
77662;BME280;69666;52.136;5.424;2023-06-14T07:00:07;101791.78;;;25.78;35.14
77662;BME280;69666;52.136;5.424;2023-06-14T07:02:36;101797.22;;;25.90;35.42
77662;BME280;69666;52.136;5.424;2023-06-14T07:05:04;101801.78;;;26.00;34.42
77662;BME280;69666;52.136;5.424;2023-06-14T07:07:31;101793.31;;;26.14;34.43
77662;BME280;69666;52.136;5.424;2023-06-14T07:09:58;101799.97;;;26.33;33.99
77662;BME280;69666;52.136;5.424;2023-06-14T07:12:25;101807.97;;;26.45;34.07
77662;BME280;69666;52.136;5.424;2023-06-14T07:14:52;101798.31;;;26.62;33.65
77662;BME280;69666;52.136;5.424;2023-06-14T07:17:19;101799.59;;;26.79;32.73
77662;BME280;69666;52.136;5.424;2023-06-14T07:19:47;101796.56;;;26.93;32.87
77662;BME280;69666;52.136;5.424;2023-06-14T07:22:14;101801.31;;;27.21;33.24
77662;BME280;69666;52.136;5.424;2023-06-14T07:24:41;101801.28;;;27.42;32.02
77662;BME280;69666;52.136;5.424;2023-06-14T07:27:09;101813.97;;;27.53;31.29
77662;BME280;69666;52.136;5.424;2023-06-14T07:29:38;101804.72;;;27.75;30.96
77662;BME280;69666;52.136;5.424;2023-06-14T07:32:06;101805.88;;;27.82;30.71
77662;BME280;69666;52.136;5.424;2023-06-14T07:34:33;101807.47;;;27.84;30.15
77662;BME280;69666;52.136;5.424;2023-06-14T07:37:00;101809.72;;;28.10;31.18
77662;BME280;69666;52.136;5.424;2023-06-14T07:39:27;101809.75;;;28.39;29.85
77662;BME280;69666;52.136;5.424;2023-06-14T07:41:53;101810.75;;;28.76;30.42
77662;BME280;69666;52.136;5.424;2023-06-14T07:44:20;101812.56;;;29.14;28.64
77662;BME280;69666;52.136;5.424;2023-06-14T07:46:46;101816.72;;;29.28;27.27
77662;BME280;69666;52.136;5.424;2023-06-14T07:49:15;101814.22;;;29.44;28.22
77662;BME280;69666;52.136;5.424;2023-06-14T07:51:42;101819.78;;;29.62;27.67
77662;BME280;69666;52.136;5.424;2023-06-14T07:54:10;101815.69;;;29.66;27.87
77662;BME280;69666;52.136;5.424;2023-06-14T07:56:37;101820.78;;;29.88;27.12
77662;BME280;69666;52.136;5.424;2023-06-14T07:59:04;101829.22;;;29.77;27.10
77662;BME280;69666;52.136;5.424;2023-06-14T08:01:37;101826.22;;;29.70;26.88
77662;BME280;69666;52.136;5.424;2023-06-14T08:04:04;101824.78;;;29.66;27.36
77662;BME280;69666;52.136;5.424;2023-06-14T08:06:30;101826.66;;;29.66;26.80
77662;BME280;69666;52.136;5.424;2023-06-14T08:08:57;101828.31;;;29.59;26.54
77662;BME280;69666;52.136;5.424;2023-06-14T08:11:24;101824.53;;;29.60;26.68
77662;BME280;69666;52.136;5.424;2023-06-14T08:13:50;101825.44;;;29.78;27.86
77662;BME280;69666;52.136;5.424;2023-06-14T08:16:17;101821.41;;;29.82;27.24
77662;BME280;69666;52.136;5.424;2023-06-14T08:18:44;101824.69;;;29.95;26.93
77662;BME280;69666;52.136;5.424;2023-06-14T08:21:11;101825.78;;;30.02;25.84
77662;BME280;69666;52.136;5.424;2023-06-14T08:23:37;101821.50;;;30.18;26.13
77662;BME280;69666;52.136;5.424;2023-06-14T08:26:04;101826.69;;;30.38;26.16
77662;BME280;69666;52.136;5.424;2023-06-14T08:28:31;101826.44;;;30.49;25.60
77662;BME280;69666;52.136;5.424;2023-06-14T08:31:00;101822.66;;;30.50;25.73
77662;BME280;69666;52.136;5.424;2023-06-14T08:33:28;101815.84;;;30.55;25.23
77662;BME280;69666;52.136;5.424;2023-06-14T08:35:55;101829.81;;;30.61;25.26
77662;BME280;69666;52.136;5.424;2023-06-14T08:38:21;101822.88;;;30.93;25.82
77662;BME280;69666;52.136;5.424;2023-06-14T08:40:50;101821.94;;;30.84;24.50
77662;BME280;69666;52.136;5.424;2023-06-14T08:43:18;101820.03;;;31.02;24.51
77662;BME280;69666;52.136;5.424;2023-06-14T08:45:48;101818.81;;;31.05;24.60
77662;BME280;69666;52.136;5.424;2023-06-14T08:48:15;101821.00;;;30.93;23.83
77662;BME280;69666;52.136;5.424;2023-06-14T08:50:44;101818.63;;;30.98;23.26
77662;BME280;69666;52.136;5.424;2023-06-14T08:53:14;101820.53;;;31.06;23.95
77662;BME280;69666;52.136;5.424;2023-06-14T08:55:46;101815.63;;;31.09;22.81
77662;BME280;69666;52.136;5.424;2023-06-14T08:58:14;101817.56;;;31.17;23.21
77662;BME280;69666;52.136;5.424;2023-06-14T09:00:42;101819.31;;;31.26;23.48
77662;BME280;69666;52.136;5.424;2023-06-14T09:03:09;101813.22;;;31.40;23.37
77662;BME280;69666;52.136;5.424;2023-06-14T09:05:40;101815.53;;;31.53;23.73
77662;BME280;69666;52.136;5.424;2023-06-14T09:08:06;101820.13;;;31.44;22.57
77662;BME280;69666;52.136;5.424;2023-06-14T09:10:34;101816.59;;;31.60;22.48
77662;BME280;69666;52.136;5.424;2023-06-14T09:13:04;101827.03;;;31.48;22.49
77662;BME280;69666;52.136;5.424;2023-06-14T09:15:30;101821.50;;;31.74;22.96
77662;BME280;69666;52.136;5.424;2023-06-14T09:18:01;101827.34;;;31.71;22.22
77662;BME280;69666;52.136;5.424;2023-06-14T09:20:30;101822.75;;;31.80;22.97
77662;BME280;69666;52.136;5.424;2023-06-14T09:22:58;101820.25;;;32.11;22.24
77662;BME280;69666;52.136;5.424;2023-06-14T09:25:27;101811.47;;;32.15;22.87
77662;BME280;69666;52.136;5.424;2023-06-14T09:28:09;101819.38;;;32.10;20.99
77662;BME280;69666;52.136;5.424;2023-06-14T09:30:38;101832.63;;;32.15;21.38
77662;BME280;69666;52.136;5.424;2023-06-14T09:33:05;101825.66;;;32.28;21.41
77662;BME280;69666;52.136;5.424;2023-06-14T09:35:32;101831.31;;;32.35;20.50
77662;BME280;69666;52.136;5.424;2023-06-14T09:37:59;101842.56;;;32.34;20.88
77662;BME280;69666;52.136;5.424;2023-06-14T09:40:26;101838.56;;;32.20;21.49
77662;BME280;69666;52.136;5.424;2023-06-14T09:42:54;101830.75;;;32.07;19.92
77662;BME280;69666;52.136;5.424;2023-06-14T09:45:25;101826.84;;;32.18;21.54
77662;BME280;69666;52.136;5.424;2023-06-14T09:47:57;101827.00;;;32.24;20.93
77662;BME280;69666;52.136;5.424;2023-06-14T09:50:34;101809.47;;;32.50;22.88
77662;BME280;69666;52.136;5.424;2023-06-14T09:53:11;101813.78;;;32.44;21.43
77662;BME280;69666;52.136;5.424;2023-06-14T09:55:41;101817.75;;;32.50;21.32
77662;BME280;69666;52.136;5.424;2023-06-14T09:58:09;101822.94;;;32.53;20.64
77662;BME280;69666;52.136;5.424;2023-06-14T10:00:39;101816.72;;;32.43;21.17
77662;BME280;69666;52.136;5.424;2023-06-14T10:03:13;101818.28;;;32.53;20.90
77662;BME280;69666;52.136;5.424;2023-06-14T10:05:45;101816.19;;;32.47;20.82
77662;BME280;69666;52.136;5.424;2023-06-14T10:08:25;101819.13;;;32.54;19.76
77662;BME280;69666;52.136;5.424;2023-06-14T10:10:55;101801.00;;;32.35;20.61
77662;BME280;69666;52.136;5.424;2023-06-14T10:13:23;101811.75;;;32.71;22.14
77662;BME280;69666;52.136;5.424;2023-06-14T10:16:04;101807.94;;;32.63;20.67
77662;BME280;69666;52.136;5.424;2023-06-14T10:18:38;101816.38;;;32.70;20.47
77662;BME280;69666;52.136;5.424;2023-06-14T10:21:33;101824.78;;;32.28;19.95
77662;BME280;69666;52.136;5.424;2023-06-14T10:24:07;101803.09;;;32.41;20.56
77662;BME280;69666;52.136;5.424;2023-06-14T10:26:50;101812.06;;;32.59;20.92
77662;BME280;69666;52.136;5.424;2023-06-14T10:29:17;101804.84;;;32.83;21.59
77662;BME280;69666;52.136;5.424;2023-06-14T10:31:46;101810.69;;;32.80;21.75
77662;BME280;69666;52.136;5.424;2023-06-14T10:34:27;101812.97;;;32.76;21.08
77662;BME280;69666;52.136;5.424;2023-06-14T10:37:01;101812.25;;;32.90;20.95
77662;BME280;69666;52.136;5.424;2023-06-14T10:39:30;101803.66;;;32.85;19.15
77662;BME280;69666;52.136;5.424;2023-06-14T10:41:58;101804.34;;;32.87;20.91
77662;BME280;69666;52.136;5.424;2023-06-14T10:46:59;101804.66;;;32.60;20.36
77662;BME280;69666;52.136;5.424;2023-06-14T10:49:43;101813.75;;;32.28;20.24
77662;BME280;69666;52.136;5.424;2023-06-14T10:52:13;101811.63;;;32.14;20.77
77662;BME280;69666;52.136;5.424;2023-06-14T10:55:00;101809.63;;;32.40;23.94
77662;BME280;69666;52.136;5.424;2023-06-14T10:57:36;101818.44;;;32.44;21.46
77662;BME280;69666;52.136;5.424;2023-06-14T11:00:23;101810.84;;;32.21;20.67
77662;BME280;69666;52.136;5.424;2023-06-14T11:03:24;101807.69;;;32.16;20.64
77662;BME280;69666;52.136;5.424;2023-06-14T11:05:58;101795.28;;;32.12;21.39
77662;BME280;69666;52.136;5.424;2023-06-14T11:11:09;101799.56;;;32.15;21.70
77662;BME280;69666;52.136;5.424;2023-06-14T11:13:41;101810.59;;;32.07;22.97
77662;BME280;69666;52.136;5.424;2023-06-14T11:16:13;101802.00;;;32.10;21.31
77662;BME280;69666;52.136;5.424;2023-06-14T11:18:41;101801.63;;;32.13;22.78
77662;BME280;69666;52.136;5.424;2023-06-14T11:21:08;101792.47;;;31.88;23.54
77662;BME280;69666;52.136;5.424;2023-06-14T11:23:39;101795.59;;;32.01;22.55
77662;BME280;69666;52.136;5.424;2023-06-14T11:26:05;101803.50;;;32.04;22.29
77662;BME280;69666;52.136;5.424;2023-06-14T11:28:39;101813.41;;;31.73;22.10
77662;BME280;69666;52.136;5.424;2023-06-14T11:31:07;101801.78;;;31.61;21.23
77662;BME280;69666;52.136;5.424;2023-06-14T11:33:35;101797.13;;;31.53;21.08
77662;BME280;69666;52.136;5.424;2023-06-14T11:36:03;101795.69;;;31.41;21.31
77662;BME280;69666;52.136;5.424;2023-06-14T11:38:35;101787.44;;;31.41;21.63
77662;BME280;69666;52.136;5.424;2023-06-14T11:41:01;101784.97;;;31.30;22.81
77662;BME280;69666;52.136;5.424;2023-06-14T11:43:28;101787.19;;;31.27;22.80
77662;BME280;69666;52.136;5.424;2023-06-14T11:45:58;101787.59;;;30.88;22.12
77662;BME280;69666;52.136;5.424;2023-06-14T11:48:42;101779.47;;;30.78;22.92
77662;BME280;69666;52.136;5.424;2023-06-14T11:51:09;101783.78;;;30.81;23.74
77662;BME280;69666;52.136;5.424;2023-06-14T11:53:36;101790.00;;;30.47;22.78
77662;BME280;69666;52.136;5.424;2023-06-14T11:56:03;101789.22;;;30.37;22.71
77662;BME280;69666;52.136;5.424;2023-06-14T11:58:30;101800.38;;;30.36;22.24
77662;BME280;69666;52.136;5.424;2023-06-14T12:00:57;101803.50;;;30.23;23.01
77662;BME280;69666;52.136;5.424;2023-06-14T12:03:25;101793.22;;;30.07;22.66
77662;BME280;69666;52.136;5.424;2023-06-14T12:06:07;101794.00;;;30.00;23.42
77662;BME280;69666;52.136;5.424;2023-06-14T12:08:36;101791.66;;;30.05;23.43
77662;BME280;69666;52.136;5.424;2023-06-14T12:11:11;101799.13;;;29.85;23.36
77662;BME280;69666;52.136;5.424;2023-06-14T12:13:42;101789.97;;;29.94;23.59
77662;BME280;69666;52.136;5.424;2023-06-14T12:16:10;101795.53;;;29.85;23.92
77662;BME280;69666;52.136;5.424;2023-06-14T12:18:39;101804.84;;;29.64;24.49
77662;BME280;69666;52.136;5.424;2023-06-14T12:21:07;101803.66;;;29.76;23.95
77662;BME280;69666;52.136;5.424;2023-06-14T12:23:53;101791.25;;;29.72;24.13
77662;BME280;69666;52.136;5.424;2023-06-14T12:26:20;101783.91;;;29.91;26.36
77662;BME280;69666;52.136;5.424;2023-06-14T12:28:48;101792.59;;;29.86;24.61
77662;BME280;69666;52.136;5.424;2023-06-14T12:31:16;101796.41;;;29.75;24.54
77662;BME280;69666;52.136;5.424;2023-06-14T12:33:43;101794.75;;;29.65;24.92
77662;BME280;69666;52.136;5.424;2023-06-14T12:36:13;101788.66;;;29.71;25.02
77662;BME280;69666;52.136;5.424;2023-06-14T12:38:39;101798.69;;;29.62;24.69
77662;BME280;69666;52.136;5.424;2023-06-14T12:41:06;101799.44;;;29.55;24.63
77662;BME280;69666;52.136;5.424;2023-06-14T12:43:34;101787.63;;;29.45;24.29
77662;BME280;69666;52.136;5.424;2023-06-14T12:46:01;101795.47;;;29.39;24.19
77662;BME280;69666;52.136;5.424;2023-06-14T12:48:28;101796.47;;;29.38;24.86
77662;BME280;69666;52.136;5.424;2023-06-14T12:50:56;101790.03;;;29.20;24.03
77662;BME280;69666;52.136;5.424;2023-06-14T12:53:23;101795.66;;;29.19;23.71
77662;BME280;69666;52.136;5.424;2023-06-14T12:55:50;101787.16;;;29.12;23.99
77662;BME280;69666;52.136;5.424;2023-06-14T12:58:17;101797.06;;;28.86;24.10
77662;BME280;69666;52.136;5.424;2023-06-14T13:00:47;101795.47;;;28.83;23.57
77662;BME280;69666;52.136;5.424;2023-06-14T13:03:14;101801.09;;;28.82;24.12
77662;BME280;69666;52.136;5.424;2023-06-14T13:05:40;101805.97;;;28.68;23.17